Time;durP1;ratioP1;P1;durP2;ratioP2;P2;SDS_P1;SDS_P2;PMS_P1;PMS_P2;Temp;Humidity;BMP_temperature;BMP_pressure;BME280_temperature;BME280_humidity;BME280_pressure;Samples;Min_cycle;Max_cycle;Signal;HPM_P1;HPM_P2
2022/08/09 00:00:09;;;;;;;3.20;2.50;;;;;;;20.75;64.57;98416.16;5052269;28;20025;-73
2022/08/09 00:02:42;;;;;;;4.18;2.63;;;;;;;20.81;64.84;98409.22;5054064;28;20473;-74
2022/08/09 00:05:08;;;;;;;4.38;3.03;;;;;;;20.93;64.42;98423.06;5053975;28;20495;-73
2022/08/09 00:07:36;;;;;;;3.92;2.70;;;;;;;20.86;64.59;98420.09;5053827;28;20464;-74
2022/08/09 00:10:03;;;;;;;3.10;2.60;;;;;;;20.90;64.62;98422.97;5053918;28;20029;-74
2022/08/09 00:12:29;;;;;;;3.92;2.78;;;;;;;20.99;64.60;98426.44;5054334;28;20028;-73
2022/08/09 00:14:54;;;;;;;3.35;2.50;;;;;;;20.95;64.43;98422.75;5054002;28;20380;-73
2022/08/09 00:17:19;;;;;;;3.58;2.50;;;;;;;20.85;64.65;98421.25;5052463;28;20033;-72
2022/08/09 00:19:45;;;;;;;3.85;3.10;;;;;;;20.76;65.12;98424.19;5052187;28;20089;-74
2022/08/09 00:22:10;;;;;;;3.65;2.53;;;;;;;20.81;65.11;98421.16;5053701;28;20370;-74
2022/08/09 00:24:35;;;;;;;4.57;2.55;;;;;;;20.78;65.28;98421.03;5053360;28;20017;-74
2022/08/09 00:27:01;;;;;;;4.15;2.85;;;;;;;20.72;65.35;98416.88;5051998;28;20429;-75
2022/08/09 00:29:27;;;;;;;3.95;2.78;;;;;;;20.75;65.36;98428.13;5051765;28;20032;-75
2022/08/09 00:31:53;;;;;;;3.90;2.53;;;;;;;20.74;65.68;98436.78;5053153;28;20032;-74
2022/08/09 00:34:18;;;;;;;3.40;2.50;;;;;;;20.83;65.64;98434.72;5053104;28;20021;-74
2022/08/09 00:36:44;;;;;;;3.30;2.58;;;;;;;20.82;65.52;98433.09;5052701;28;20048;-74
2022/08/09 00:39:10;;;;;;;5.07;2.72;;;;;;;20.67;66.24;98437.41;5053478;28;20033;-74
2022/08/09 00:41:36;;;;;;;3.22;2.35;;;;;;;20.65;66.26;98441.66;5053761;28;20481;-73
2022/08/09 00:44:01;;;;;;;5.00;2.60;;;;;;;20.69;66.52;98440.63;5053312;28;20086;-74
2022/08/09 00:46:27;;;;;;;6.57;2.63;;;;;;;20.59;66.68;98440.28;5051909;28;20036;-74
2022/08/09 00:48:52;;;;;;;3.28;2.63;;;;;;;20.52;67.66;98445.63;5053133;28;20032;-74
2022/08/09 00:51:18;;;;;;;6.30;2.42;;;;;;;20.49;67.37;98437.97;5051436;28;20029;-74
2022/08/09 00:53:45;;;;;;;5.68;3.00;;;;;;;20.37;67.71;98433.25;5053393;28;20016;-74
2022/08/09 00:56:12;;;;;;;4.38;2.72;;;;;;;20.40;68.22;98443.66;5053254;28;20021;-73
2022/08/09 00:58:38;;;;;;;3.28;2.50;;;;;;;20.28;68.83;98444.47;5052952;28;20025;-74
2022/08/09 01:01:19;;;;;;;6.00;2.65;;;;;;;20.30;69.00;98439.38;5052641;28;20031;-74
2022/08/09 01:03:56;;;;;;;3.05;2.50;;;;;;;20.26;69.02;98444.03;5052649;28;20407;-74
2022/08/09 01:06:56;;;;;;;5.28;3.08;;;;;;;20.23;69.50;98444.69;5052590;28;20482;-74
2022/08/09 01:09:33;;;;;;;4.13;2.95;;;;;;;20.19;69.81;98440.97;5040154;28;20041;-74
2022/08/09 01:12:01;;;;;;;4.18;2.75;;;;;;;20.17;70.37;98445.25;5031642;28;20026;-73
2022/08/09 01:15:06;;;;;;;4.95;3.00;;;;;;;20.07;70.46;98454.84;5032858;28;20346;-73
2022/08/09 01:17:40;;;;;;;4.20;2.67;;;;;;;19.99;70.83;98444.63;5027961;28;20504;-74
2022/08/09 01:20:17;;;;;;;3.47;2.80;;;;;;;20.01;71.05;98458.19;5031197;28;20080;-74
2022/08/09 01:23:15;;;;;;;3.28;2.60;;;;;;;19.96;70.93;98450.88;5031381;28;20455;-74
2022/08/09 01:25:55;;;;;;;4.55;2.83;;;;;;;19.95;71.04;98454.03;5032371;28;20116;-74
2022/08/09 01:28:23;;;;;;;6.82;2.80;;;;;;;19.94;71.16;98447.66;5032685;28;20033;-74
2022/08/09 01:30:52;;;;;;;3.25;2.50;;;;;;;19.95;71.13;98454.84;5031051;28;20025;-74
2022/08/09 01:33:20;;;;;;;3.17;2.50;;;;;;;19.94;71.17;98450.44;5030967;28;20055;-75
2022/08/09 01:35:52;;;;;;;3.85;2.85;;;;;;;19.93;71.27;98451.56;5032187;28;20049;-74
2022/08/09 01:38:21;;;;;;;5.35;2.78;;;;;;;20.03;70.49;98459.47;5032390;28;20045;-74
2022/08/09 01:40:58;;;;;;;3.75;2.55;;;;;;;19.98;70.39;98454.16;5032436;28;20041;-72
2022/08/09 01:43:23;;;;;;;3.20;2.40;;;;;;;19.98;70.57;98453.34;5032523;28;20485;-73
2022/08/09 01:45:49;;;;;;;4.78;2.55;;;;;;;20.00;70.05;98456.56;5032181;28;20080;-73
2022/08/09 01:48:17;;;;;;;3.33;2.80;;;;;;;19.94;70.68;98453.19;5032959;28;20117;-74
2022/08/09 01:50:50;;;;;;;3.45;2.67;;;;;;;19.99;70.40;98452.97;5032226;28;20491;-74
2022/08/09 01:53:17;;;;;;;4.15;2.72;;;;;;;20.07;70.10;98454.84;5032195;28;20029;-74
2022/08/09 01:55:45;;;;;;;4.68;2.75;;;;;;;20.08;69.90;98462.00;5032624;28;20071;-73
2022/08/09 01:58:12;;;;;;;4.45;3.47;;;;;;;20.10;69.59;98465.28;5066967;28;20535;-73
2022/08/09 02:00:40;;;;;;;3.70;2.33;;;;;;;19.98;69.91;98454.16;5071562;28;20035;-74
2022/08/09 02:03:07;;;;;;;5.53;3.15;;;;;;;20.14;69.77;98454.28;5071743;28;20036;-74
2022/08/09 02:05:36;;;;;;;3.72;2.70;;;;;;;20.10;69.71;98454.16;5071673;28;20020;-74
2022/08/09 02:08:05;;;;;;;5.18;3.00;;;;;;;19.97;70.39;98454.47;5071531;28;20029;-73
2022/08/09 02:10:34;;;;;;;4.38;2.70;;;;;;;19.97;70.54;98451.69;5071487;28;20036;-74
2022/08/09 02:13:03;;;;;;;4.35;2.50;;;;;;;19.85;70.48;98438.59;5071902;28;20024;-72
2022/08/09 02:15:31;;;;;;;3.97;2.50;;;;;;;19.97;70.47;98448.91;5071293;28;20032;-73
2022/08/09 02:17:59;;;;;;;6.10;2.50;;;;;;;19.88;70.67;98449.03;5071392;28;20025;-73
2022/08/09 02:20:27;;;;;;;4.05;2.95;;;;;;;19.81;70.80;98443.22;5071403;28;20118;-73
2022/08/09 02:23:05;;;;;;;5.75;2.70;;;;;;;19.74;70.91;98438.22;5070782;28;20021;-73
2022/08/09 02:25:35;;;;;;;3.33;2.35;;;;;;;19.73;71.15;98441.38;5071189;28;20032;-73
2022/08/09 02:28:29;;;;;;;3.85;2.83;;;;;;;19.59;71.53;98429.75;5071423;28;20137;-73
2022/08/09 02:31:03;;;;;;;3.80;2.60;;;;;;;19.55;71.86;98428.78;5071676;28;20119;-74
2022/08/09 02:33:35;;;;;;;3.90;2.63;;;;;;;19.58;71.54;98422.56;5071042;28;20037;-73
2022/08/09 02:36:05;;;;;;;3.83;2.78;;;;;;;19.46;70.88;98415.00;5070846;28;20213;-73
2022/08/09 02:38:35;;;;;;;4.90;2.83;;;;;;;19.54;71.49;98432.75;5070937;28;20032;-73
2022/08/09 02:41:09;;;;;;;5.72;2.42;;;;;;;19.48;71.45;98423.81;5071168;28;20479;-74
2022/08/09 02:43:36;;;;;;;2.97;2.50;;;;;;;19.52;71.54;98432.25;5071080;28;20068;-73
2022/08/09 02:46:06;;;;;;;4.15;2.83;;;;;;;19.43;71.38;98425.97;5070980;28;20020;-73
2022/08/09 02:48:34;;;;;;;4.55;2.70;;;;;;;19.43;71.48;98437.91;5070791;28;20051;-74
2022/08/09 02:51:01;;;;;;;3.45;2.47;;;;;;;19.39;71.81;98430.59;5070951;28;20024;-73
2022/08/09 02:53:47;;;;;;;3.10;2.42;;;;;;;19.46;71.49;98436.41;5070868;28;20028;-73
2022/08/09 02:56:13;;;;;;;29.13;3.13;;;;;;;19.49;70.83;98419.88;5069517;28;20044;-73
2022/08/09 02:58:41;;;;;;;10.95;3.40;;;;;;;19.46;71.50;98425.31;5070628;28;20123;-74
2022/08/09 03:01:07;;;;;;;5.90;2.50;;;;;;;19.39;71.70;98419.50;5070812;28;20028;-74
2022/08/09 03:03:35;;;;;;;5.75;2.70;;;;;;;19.34;71.97;98417.72;5070604;28;20028;-74
2022/08/09 03:06:02;;;;;;;3.65;2.60;;;;;;;19.40;72.28;98410.03;5069194;28;20384;-74
2022/08/09 03:08:29;;;;;;;4.53;2.85;;;;;;;19.30;72.40;98410.41;5070937;28;20028;-74
2022/08/09 03:10:56;;;;;;;3.55;2.58;;;;;;;19.25;72.66;98403.94;5071062;28;20461;-74
2022/08/09 03:13:24;;;;;;;5.68;2.60;;;;;;;19.16;73.30;98394.88;5071277;28;20035;-74
2022/08/09 03:15:50;;;;;;;3.78;2.92;;;;;;;19.22;73.19;98409.34;5070537;28;20032;-73
2022/08/09 03:18:17;;;;;;;17.60;2.95;;;;;;;19.16;73.67;98403.22;5070564;28;20510;-73
2022/08/09 03:20:43;;;;;;;3.05;2.40;;;;;;;19.14;73.38;98401.91;5070600;28;20024;-74
2022/08/09 03:23:11;;;;;;;742.22;56.45;;;;;;;19.09;74.00;98396.59;5070208;28;20043;-74
2022/08/09 03:25:38;;;;;;;729.05;86.65;;;;;;;19.12;74.01;98398.66;5070754;28;20024;-74
2022/08/09 03:28:04;;;;;;;499.60;84.90;;;;;;;19.05;74.37;98395.63;5070661;28;20024;-73
2022/08/09 03:30:31;;;;;;;721.20;132.60;;;;;;;18.96;75.03;98400.44;5070574;28;20111;-74
2022/08/09 03:32:59;;;;;;;108.70;101.47;;;;;;;19.12;74.59;98401.44;5070519;28;20021;-74
2022/08/09 03:35:24;;;;;;;1999.90;999.90;;;;;;;19.18;74.47;98409.22;5072971;28;20140;-74
2022/08/09 03:37:50;;;;;;;1999.90;999.90;;;;;;;19.25;74.11;98400.34;5074356;28;20536;-74
2022/08/09 03:40:17;;;;;;;1999.90;999.90;;;;;;;19.18;74.07;98403.66;5074379;28;20082;-74
2022/08/09 03:42:43;;;;;;;1999.90;999.90;;;;;;;19.31;73.74;98401.75;5073586;28;20031;-73
2022/08/09 03:45:09;;;;;;;1999.90;999.90;;;;;;;19.22;74.11;98409.34;5074307;28;20024;-73
2022/08/09 03:47:34;;;;;;;1999.90;999.90;;;;;;;19.08;75.04;98412.41;5074225;28;20020;-73
2022/08/09 03:50:03;;;;;;;1999.90;999.90;;;;;;;19.08;75.28;98414.34;5074256;28;20058;-73
2022/08/09 03:52:29;;;;;;;1999.90;999.90;;;;;;;19.13;75.13;98422.50;5074178;28;20098;-74
2022/08/09 03:54:56;;;;;;;1999.90;999.90;;;;;;;19.13;75.00;98409.44;5074301;28;20503;-74
2022/08/09 03:57:21;;;;;;;1999.90;999.90;;;;;;;19.09;75.55;98418.75;5072779;28;20369;-74
2022/08/09 03:59:48;;;;;;;1999.90;999.90;;;;;;;19.10;75.84;98412.91;5073953;28;20497;-73
2022/08/09 04:02:14;;;;;;;1999.90;999.90;;;;;;;19.11;75.94;98422.81;5073746;28;20025;-73
2022/08/09 04:04:39;;;;;;;1999.90;999.90;;;;;;;19.12;75.78;98421.69;5073858;28;20043;-74
2022/08/09 04:07:05;;;;;;;1999.90;999.90;;;;;;;19.10;75.75;98423.16;5073636;28;20021;-73
2022/08/09 04:09:31;;;;;;;1999.90;999.90;;;;;;;19.18;75.66;98430.59;5072542;28;20112;-73
2022/08/09 04:12:08;;;;;;;1999.90;999.90;;;;;;;19.18;75.77;98425.88;5074232;28;20131;-73
2022/08/09 04:14:34;;;;;;;1999.90;999.90;;;;;;;19.15;75.98;98418.22;5072447;28;20040;-74
2022/08/09 04:16:59;;;;;;;1999.90;999.90;;;;;;;19.26;75.92;98415.84;5070836;28;20017;-73
2022/08/09 04:19:24;;;;;;;1999.90;999.90;;;;;;;19.25;75.87;98417.81;5040772;28;20044;-74
2022/08/09 04:21:50;;;;;;;1999.90;999.90;;;;;;;19.37;75.81;98419.00;5053235;28;20477;-74
2022/08/09 04:24:15;;;;;;;1999.90;999.90;;;;;;;19.45;75.29;98421.72;5042288;28;20064;-74
2022/08/09 04:26:41;;;;;;;1999.90;999.90;;;;;;;19.50;74.89;98417.91;5033385;28;20029;-73
2022/08/09 04:29:06;;;;;;;1999.90;999.90;;;;;;;19.47;74.88;98418.59;5032112;28;20029;-73
2022/08/09 04:31:32;;;;;;;1999.90;999.90;;;;;;;19.48;75.13;98423.00;5033534;28;20033;-73
2022/08/09 04:33:57;;;;;;;1999.90;999.90;;;;;;;19.57;74.49;98421.78;5033387;28;20034;-73
2022/08/09 04:36:25;;;;;;;1999.90;999.90;;;;;;;19.57;74.64;98415.41;5043383;28;20062;-73
2022/08/09 04:38:51;;;;;;;1999.90;999.90;;;;;;;19.61;74.74;98414.34;5052683;28;20484;-73
2022/08/09 04:41:16;;;;;;;1999.90;999.90;;;;;;;19.89;74.12;98422.84;5052298;28;20126;-73
2022/08/09 04:43:41;;;;;;;1999.90;999.90;;;;;;;20.06;73.11;98419.88;5053393;28;20489;-77
2022/08/09 04:46:07;;;;;;;1999.90;999.90;;;;;;;20.33;72.02;98415.63;5052913;28;20033;-77
2022/08/09 04:48:32;;;;;;;1999.90;999.90;;;;;;;20.36;72.02;98425.25;5053243;28;20999;-77
2022/08/09 04:50:57;;;;;;;1999.90;999.90;;;;;;;20.22;72.25;98426.38;5053312;28;20153;-77
2022/08/09 04:53:22;;;;;;;1999.90;999.90;;;;;;;20.20;72.16;98417.56;5053147;28;20108;-78
2022/08/09 04:55:49;;;;;;;1999.90;999.90;;;;;;;20.13;72.25;98425.69;5053088;28;20083;-78
2022/08/09 04:58:14;;;;;;;1999.90;999.90;;;;;;;20.14;72.19;98441.19;5052869;28;20033;-78
2022/08/09 05:00:40;;;;;;;1999.90;999.90;;;;;;;20.06;72.02;98419.88;5052460;28;20035;-78
2022/08/09 05:03:05;;;;;;;1999.90;999.90;;;;;;;19.96;72.19;98412.00;5052547;28;20021;-77
2022/08/09 05:05:30;;;;;;;1999.90;999.90;;;;;;;20.11;72.44;98439.09;5052854;28;20416;-78
2022/08/09 05:07:56;;;;;;;1999.90;999.90;;;;;;;20.21;72.16;98435.88;5053812;28;20033;-78
2022/08/09 05:10:21;;;;;;;1999.90;999.90;;;;;;;20.27;71.61;98440.06;5054665;28;20551;-78
2022/08/09 05:12:47;;;;;;;1999.90;999.90;;;;;;;20.21;72.25;98440.59;5054364;28;20021;-76
2022/08/09 05:15:12;;;;;;;1999.90;999.90;;;;;;;20.34;72.07;98444.22;5052787;28;20063;-77
2022/08/09 05:17:38;;;;;;;1999.90;999.90;;;;;;;20.39;72.00;98442.06;5053104;28;20070;-77
2022/08/09 05:20:04;;;;;;;1999.90;999.90;;;;;;;20.44;72.31;98443.78;5056141;28;20495;-78
2022/08/09 05:22:30;;;;;;;1999.90;999.90;;;;;;;20.55;72.18;98444.94;5055216;28;20473;-79
2022/08/09 05:24:55;;;;;;;1999.90;999.90;;;;;;;20.62;71.73;98456.28;5070086;28;20028;-80
2022/08/09 05:27:21;;;;;;;1999.90;999.90;;;;;;;20.54;71.59;98448.88;5072723;28;20037;-80
2022/08/09 05:29:46;;;;;;;1999.90;999.90;;;;;;;20.43;72.28;98442.16;5054533;28;20025;-75
2022/08/09 05:32:12;;;;;;;1999.90;999.90;;;;;;;20.61;71.93;98451.91;5066404;28;20037;-80
2022/08/09 05:34:37;;;;;;;1999.90;999.90;;;;;;;20.66;72.30;98440.53;5067517;28;20056;-79
2022/08/09 05:37:05;;;;;;;1999.90;999.90;;;;;;;20.87;71.76;98452.31;5065396;28;20037;-79
2022/08/09 05:39:31;;;;;;;1999.90;999.90;;;;;;;21.09;69.87;98443.47;5064859;28;20036;-80
2022/08/09 05:41:57;;;;;;;1999.90;999.90;;;;;;;21.13;69.06;98447.19;5063783;28;20060;-77
2022/08/09 05:44:22;;;;;;;1999.90;999.90;;;;;;;21.41;68.06;98451.94;5069207;28;20012;-80
2022/08/09 05:46:47;;;;;;;1999.90;999.90;;;;;;;21.40;67.35;98448.34;5060329;28;20029;-78
2022/08/09 05:49:13;;;;;;;1999.90;999.90;;;;;;;21.68;66.72;98453.91;5058071;28;20040;-77
2022/08/09 05:51:38;;;;;;;1999.90;999.90;;;;;;;21.74;65.97;98446.94;5053388;28;20025;-77
2022/08/09 05:54:04;;;;;;;1999.90;999.90;;;;;;;21.66;65.04;98450.66;5053254;28;20021;-77
2022/08/09 05:56:29;;;;;;;1999.90;999.90;;;;;;;21.51;64.47;98457.00;5053890;28;20052;-76
2022/08/09 05:58:58;;;;;;;1999.90;999.90;;;;;;;21.35;64.92;98451.41;5054947;28;20056;-77
2022/08/09 06:01:25;;;;;;;1999.90;999.90;;;;;;;21.41;65.26;98457.50;5055156;28;20830;-76
2022/08/09 06:03:50;;;;;;;1999.90;999.90;;;;;;;21.77;64.30;98454.56;5054155;28;20029;-76
2022/08/09 06:06:16;;;;;;;1999.90;999.90;;;;;;;22.07;63.09;98461.38;5056625;28;20408;-80
2022/08/09 06:08:41;;;;;;;1999.90;999.90;;;;;;;21.91;63.39;98454.97;5077154;28;20025;-80
2022/08/09 06:11:09;;;;;;;1999.90;999.90;;;;;;;21.59;64.77;98456.84;5078194;28;20013;-77
2022/08/09 06:13:35;;;;;;;1999.90;999.90;;;;;;;21.82;64.04;98460.69;5079133;28;20025;-77
2022/08/09 06:16:03;;;;;;;1999.90;999.90;;;;;;;22.04;62.84;98466.84;5078469;28;20028;-79
2022/08/09 06:18:29;;;;;;;1999.90;999.90;;;;;;;22.04;62.54;98459.31;5077282;28;20025;-77
2022/08/09 06:20:55;;;;;;;1999.90;999.90;;;;;;;22.15;62.41;98457.59;5063218;28;20455;-81
2022/08/09 06:23:21;;;;;;;1999.90;999.90;;;;;;;22.30;61.90;98453.22;5058817;28;20017;-79
2022/08/09 06:25:47;;;;;;;1999.90;999.90;;;;;;;22.80;60.34;98464.44;5066662;28;20044;-82
2022/08/09 06:28:13;;;;;;;1999.90;999.90;;;;;;;22.97;60.36;98454.84;5076578;28;20040;-82
2022/08/09 06:30:38;;;;;;;1999.90;999.90;;;;;;;22.89;59.99;98458.66;5075499;28;20053;-81
2022/08/09 06:33:04;;;;;;;1999.90;999.90;;;;;;;23.32;59.10;98455.63;5073264;28;20047;-81
2022/08/09 06:35:29;;;;;;;1999.90;999.90;;;;;;;23.31;58.67;98454.00;5070169;28;20056;-82
2022/08/09 06:37:55;;;;;;;1999.90;999.90;;;;;;;23.17;59.26;98444.50;5065742;28;20029;-80
2022/08/09 06:40:20;;;;;;;1999.90;999.90;;;;;;;23.00;59.07;98451.31;5065394;28;20029;-81
2022/08/09 06:42:46;;;;;;;1999.90;999.90;;;;;;;22.96;59.71;98446.84;5066452;28;20025;-81
2022/08/09 06:45:11;;;;;;;1999.90;999.90;;;;;;;23.48;58.18;98449.19;5070616;28;20032;-81
2022/08/09 06:47:37;;;;;;;1999.90;999.90;;;;;;;23.84;57.00;98462.66;5070759;28;20032;-83
2022/08/09 06:50:04;;;;;;;1999.90;999.90;;;;;;;23.58;57.43;98448.59;5060736;28;20060;-79
2022/08/09 06:52:29;;;;;;;1999.90;999.90;;;;;;;23.44;57.54;98452.72;5054409;28;20466;-81
2022/08/09 06:54:54;;;;;;;1999.90;999.90;;;;;;;23.11;58.63;98459.94;5059000;28;20055;-80
2022/08/09 06:57:20;;;;;;;1999.90;999.90;;;;;;;23.39;57.98;98455.81;5058554;28;20075;-80
2022/08/09 06:59:46;;;;;;;1999.90;999.90;;;;;;;23.56;57.32;98460.13;5061008;28;20037;-82
2022/08/09 07:02:11;;;;;;;1999.90;999.90;;;;;;;23.63;57.31;98467.84;5066466;28;20040;-81
2022/08/09 07:04:36;;;;;;;1999.90;999.90;;;;;;;23.42;58.30;98459.84;5066700;28;20509;-81
2022/08/09 07:07:03;;;;;;;1999.90;999.90;;;;;;;23.62;57.73;98463.44;5068345;28;20020;-82
2022/08/09 07:09:28;;;;;;;1999.90;999.90;;;;;;;23.51;57.48;98471.59;5063236;28;20017;-81
2022/08/09 07:11:54;;;;;;;1999.90;999.90;;;;;;;23.73;56.67;98467.25;5066817;28;20732;-80
2022/08/09 07:14:19;;;;;;;1999.90;999.90;;;;;;;23.78;56.18;98470.53;5051881;28;20033;-79
2022/08/09 07:16:45;;;;;;;1999.90;999.90;;;;;;;23.94;55.88;98470.44;5052194;28;20040;-79
2022/08/09 07:19:14;;;;;;;1999.90;999.90;;;;;;;24.01;55.40;98473.38;5051404;28;20505;-79
2022/08/09 07:21:40;;;;;;;1999.90;999.90;;;;;;;24.37;54.43;98470.06;5052525;28;20040;-79
2022/08/09 07:24:06;;;;;;;1999.90;999.90;;;;;;;24.56;54.01;98468.38;5053816;28;20028;-80
2022/08/09 07:26:32;;;;;;;1999.90;999.90;;;;;;;24.36;54.00;98471.25;5055858;28;20088;-79
2022/08/09 07:28:58;;;;;;;1999.90;999.90;;;;;;;24.11;55.32;98478.41;5051817;28;20489;-79
2022/08/09 07:31:24;;;;;;;1999.90;999.90;;;;;;;24.13;55.11;98478.00;5053114;28;20120;-80
2022/08/09 07:33:49;;;;;;;1999.90;999.90;;;;;;;24.64;53.41;98476.53;5054154;28;20496;-80
2022/08/09 07:36:15;;;;;;;1999.90;999.90;;;;;;;24.87;52.76;98471.69;5052198;28;20128;-79
2022/08/09 07:38:40;;;;;;;1999.90;999.90;;;;;;;24.96;51.98;98461.06;5052165;28;20473;-80
2022/08/09 07:41:07;;;;;;;1999.90;999.90;;;;;;;24.74;52.48;98461.09;5054302;28;20037;-80
2022/08/09 07:43:32;;;;;;;1999.90;999.90;;;;;;;24.75;52.97;98455.09;5056632;28;20035;-79
2022/08/09 07:45:58;;;;;;;1999.90;999.90;;;;;;;24.53;53.54;98462.34;5053406;28;20073;-78
2022/08/09 07:48:23;;;;;;;1999.90;999.90;;;;;;;24.79;52.58;98461.56;5056392;28;20478;-79
2022/08/09 07:50:49;;;;;;;1999.90;999.90;;;;;;;24.79;52.55;98466.34;5053567;28;20090;-79
2022/08/09 07:53:15;;;;;;;1999.90;999.90;;;;;;;24.86;51.54;98460.91;5045653;28;20120;-77
2022/08/09 07:55:40;;;;;;;1999.90;999.90;;;;;;;25.64;49.66;98450.75;5052822;28;20018;-80
2022/08/09 07:58:06;;;;;;;1999.90;999.90;;;;;;;25.65;49.78;98452.38;5046229;28;20253;-77
2022/08/09 08:00:31;;;;;;;1999.90;999.90;;;;;;;26.32;48.65;98462.31;5048914;28;20456;-78
2022/08/09 08:02:58;;;;;;;1999.90;999.90;;;;;;;28.43;43.77;98464.69;5048881;28;20021;-79
2022/08/09 08:05:24;;;;;;;1999.90;999.90;;;;;;;30.15;38.41;98468.31;5047122;28;20051;-82
2022/08/09 08:07:50;;;;;;;1999.90;999.90;;;;;;;29.77;38.60;98464.47;5049782;28;20044;-78
2022/08/09 08:10:16;;;;;;;1999.90;999.90;;;;;;;31.34;36.04;98470.56;5048665;28;20024;-78
2022/08/09 08:12:43;;;;;;;1999.90;999.90;;;;;;;30.98;34.89;98467.28;5048564;28;20021;-81
2022/08/09 08:15:09;;;;;;;1999.90;999.90;;;;;;;32.00;33.18;98468.16;5046973;28;20128;-77
2022/08/09 08:17:35;;;;;;;1999.90;999.90;;;;;;;32.64;31.77;98461.59;5050634;28;20085;-79
2022/08/09 08:20:01;;;;;;;1999.90;999.90;;;;;;;32.81;30.88;98463.31;5049592;28;20499;-76
2022/08/09 08:22:29;;;;;;;1999.90;999.90;;;;;;;29.50;35.15;98454.91;5047798;28;20047;-79
2022/08/09 08:24:55;;;;;;;1999.90;999.90;;;;;;;27.82;39.67;98451.66;5053526;28;20388;-79
2022/08/09 08:27:22;;;;;;;1999.90;999.90;;;;;;;28.46;38.24;98451.81;5052753;28;20025;-79
2022/08/09 08:29:47;;;;;;;1999.90;999.90;;;;;;;27.91;38.79;98445.69;5053070;28;20021;-77
2022/08/09 08:32:13;;;;;;;1999.90;999.90;;;;;;;28.30;38.81;98438.13;5053475;28;20028;-78
2022/08/09 08:34:38;;;;;;;1999.90;999.90;;;;;;;28.22;38.46;98438.53;5054977;28;20032;-77
2022/08/09 08:37:04;;;;;;;1999.90;999.90;;;;;;;26.31;42.05;98438.28;5053881;28;20049;-77
2022/08/09 08:39:29;;;;;;;1999.90;999.90;;;;;;;26.48;41.57;98436.81;5054215;28;20025;-77
2022/08/09 08:41:55;;;;;;;1999.90;999.90;;;;;;;27.03;41.15;98427.19;5052378;28;20047;-77
2022/08/09 08:44:21;;;;;;;1999.90;999.90;;;;;;;25.79;42.07;98428.13;5053070;28;20107;-78
2022/08/09 08:46:47;;;;;;;1999.90;999.90;;;;;;;26.45;41.73;98426.34;5053637;28;20036;-77
2022/08/09 08:49:13;;;;;;;1999.90;999.90;;;;;;;26.98;40.38;98415.53;5043235;28;20033;-78
2022/08/09 08:51:39;;;;;;;1999.90;999.90;;;;;;;26.85;41.10;98431.91;5052080;28;20029;-75
2022/08/09 08:54:07;;;;;;;1999.90;999.90;;;;;;;26.92;40.76;98419.91;5047447;28;20128;-79
2022/08/09 08:56:37;;;;;;;1999.90;999.90;;;;;;;26.41;42.01;98423.53;5043697;28;20021;-77
2022/08/09 08:59:13;;;;;;;1999.90;999.90;;;;;;;26.92;40.63;98417.09;5048682;28;20124;-78
2022/08/09 09:01:42;;;;;;;1999.90;999.90;;;;;;;27.21;40.38;98426.50;5048446;28;20043;-78
2022/08/09 09:04:10;;;;;;;1999.90;999.90;;;;;;;27.10;40.41;98427.25;5051364;28;20547;-78
2022/08/09 09:06:40;;;;;;;1999.90;999.90;;;;;;;27.09;39.69;98424.84;5052741;28;20025;-76
2022/08/09 09:09:07;;;;;;;1999.90;999.90;;;;;;;27.25;39.75;98419.72;5051229;28;20056;-79
2022/08/09 09:11:36;;;;;;;1999.90;999.90;;;;;;;27.28;40.41;98416.09;5048770;28;20495;-78
2022/08/09 09:14:31;;;;;;;1999.90;999.90;;;;;;;27.79;39.31;98417.91;5051156;28;20104;-76
2022/08/09 09:16:57;;;;;;;1999.90;999.90;;;;;;;27.73;39.31;98411.88;5041970;28;20037;-75
2022/08/09 09:19:22;;;;;;;1999.90;999.90;;;;;;;27.93;38.55;98415.13;5049695;28;20511;-73
2022/08/09 09:22:07;;;;;;;1999.90;999.90;;;;;;;27.95;38.58;98424.78;5049028;28;20524;-74
2022/08/09 09:24:34;;;;;;;1999.90;999.90;;;;;;;27.24;40.24;98415.28;5050233;28;20032;-75
2022/08/09 09:27:02;;;;;;;1999.90;999.90;;;;;;;27.32;39.82;98405.66;5052646;28;20048;-75
2022/08/09 09:29:36;;;;;;;1999.90;999.90;;;;;;;27.46;39.58;98405.78;5051801;28;20033;-74
2022/08/09 09:32:03;;;;;;;1999.90;999.90;;;;;;;28.32;38.37;98401.16;5051115;28;20043;-74
2022/08/09 09:34:28;;;;;;;1999.90;999.90;;;;;;;29.13;37.03;98415.13;5051413;28;20029;-74
2022/08/09 09:36:54;;;;;;;1999.90;999.90;;;;;;;28.86;36.86;98414.78;5067871;28;20067;-73
2022/08/09 09:39:25;;;;;;;1999.90;999.90;;;;;;;29.07;36.41;98408.31;5052573;28;20718;-74
2022/08/09 09:41:51;;;;;;;1999.90;999.90;;;;;;;27.81;37.84;98404.25;5049026;28;20488;-74
2022/08/09 09:44:31;;;;;;;1999.90;999.90;;;;;;;27.60;37.93;98402.19;5052932;28;20043;-74
2022/08/09 09:47:10;;;;;;;1999.90;999.90;;;;;;;27.57;38.30;98405.78;5051014;28;20033;-75
2022/08/09 09:49:39;;;;;;;1999.90;999.90;;;;;;;27.01;39.43;98401.50;5051385;28;20021;-74
2022/08/09 09:52:10;;;;;;;1999.90;999.90;;;;;;;26.54;40.65;98398.75;5050849;28;20397;-76
2022/08/09 09:54:38;;;;;;;1999.90;999.90;;;;;;;26.94;40.07;98397.88;5066229;28;20093;-74
2022/08/09 09:57:18;;;;;;;1999.90;999.90;;;;;;;27.11;39.64;98395.16;5053917;28;20024;-74
2022/08/09 09:59:46;;;;;;;1999.90;999.90;;;;;;;27.51;38.66;98385.69;5049098;28;20040;-76
2022/08/09 10:02:11;;;;;;;1999.90;999.90;;;;;;;27.65;38.54;98394.19;5050814;28;20067;-75
2022/08/09 10:04:37;;;;;;;1999.90;999.90;;;;;;;27.26;38.86;98389.56;5046028;28;20500;-74
2022/08/09 10:07:03;;;;;;;1999.90;999.90;;;;;;;27.10;38.41;98393.53;5045603;28;20029;-75
2022/08/09 10:09:46;;;;;;;1999.90;999.90;;;;;;;27.98;38.13;98386.59;5048595;28;20033;-74
2022/08/09 10:12:11;;;;;;;1999.90;999.90;;;;;;;28.21;36.44;98389.88;5047386;28;20424;-75
2022/08/09 10:14:37;;;;;;;1999.90;999.90;;;;;;;27.97;36.94;98382.19;5047613;28;20037;-75
2022/08/09 10:17:10;;;;;;;1999.90;999.90;;;;;;;27.67;37.66;98379.72;5048282;28;20047;-74
2022/08/09 10:19:36;;;;;;;1999.90;999.90;;;;;;;28.13;37.06;98379.84;5058559;28;20114;-77
2022/08/09 10:22:02;;;;;;;1999.90;999.90;;;;;;;28.01;37.14;98371.72;5050877;28;20481;-77
2022/08/09 10:24:28;;;;;;;1999.90;999.90;;;;;;;27.86;36.61;98375.72;5051755;28;20560;-76
2022/08/09 10:26:55;;;;;;;1999.90;999.90;;;;;;;28.49;36.40;98372.16;5046395;28;20107;-78
2022/08/09 10:29:21;;;;;;;1999.90;999.90;;;;;;;28.51;36.67;98370.53;5045887;28;20369;-76
2022/08/09 10:31:47;;;;;;;1999.90;999.90;;;;;;;28.09;37.26;98360.13;5044681;28;20025;-75
2022/08/09 10:34:15;;;;;;;1999.90;999.90;;;;;;;27.36;38.92;98357.91;5045935;28;20083;-76
2022/08/09 10:36:41;;;;;;;1999.90;999.90;;;;;;;27.78;37.81;98360.06;5051514;28;20048;-76
2022/08/09 10:39:06;;;;;;;1999.90;999.90;;;;;;;27.67;38.31;98360.84;5048695;28;20569;-76
2022/08/09 10:41:32;;;;;;;1999.90;999.90;;;;;;;27.29;38.52;98350.25;5040789;28;20136;-76
2022/08/09 10:43:57;;;;;;;1999.90;999.90;;;;;;;27.73;38.36;98346.38;5048857;28;20087;-77
2022/08/09 10:46:49;;;;;;;1999.90;999.90;;;;;;;28.11;37.76;98356.91;5047976;28;20072;-76
2022/08/09 10:49:29;;;;;;;1999.90;999.90;;;;;;;27.43;38.11;98344.72;5046839;28;20758;-76
2022/08/09 10:52:02;;;;;;;1999.90;999.90;;;;;;;27.41;38.43;98329.44;5046272;28;20186;-77
2022/08/09 10:54:28;;;;;;;1999.90;999.90;;;;;;;27.45;38.10;98345.13;5049464;28;20033;-75
2022/08/09 10:57:09;;;;;;;1999.90;999.90;;;;;;;27.12;38.31;98348.19;5046970;28;20059;-75
2022/08/09 10:59:36;;;;;;;1999.90;999.90;;;;;;;27.69;37.48;98340.78;5048023;28;20028;-76
2022/08/09 11:02:05;;;;;;;1999.90;999.90;;;;;;;27.73;37.69;98346.38;5052191;28;20021;-76
2022/08/09 11:04:30;;;;;;;1999.90;999.90;;;;;;;27.62;37.49;98347.19;5050615;28;20366;-74
2022/08/09 11:06:59;;;;;;;1999.90;999.90;;;;;;;27.43;37.86;98344.72;5050541;28;20040;-74